メインページ
METAR-TAF:

METAR-TAF

空港 :

ウシュアイア, アルゼンチン

ウシュアイア国際空港

緯度: 54-48S, 経度: 068-19W, 海抜: 16m

現時点の気象観測

当レポートは29分前の17:00(UTC)に作成
南西の風 21kt、最大31ktの突風を伴う
気温 4°C
湿度 44%
気圧 982 hPa
視程10km以上
高度3500ftの雲はほとんどない

METAR: SAWH 231700Z 23021G31KT 9999 FEW035 04/M07 Q0982

時間: 14:29 (17:29 UTC)

予報

当レポートは6時間29分前の11:00(UTC)に作成
予報は23日の 12時(UTC)から 24日の 12時(UTC)まで有効
西/南西の風 25kt、最大35ktの突風を伴う
視程: 6000m
高度2000ftの曇り
小雪
確率 30% :
23日の 12時(UTC)から 23日の 16時(UTC)まで一時的に
視程: 1000m
高度1000ftの曇り
大雪
23日の 20時(UTC)から 23日の 24時(UTC)まで徐々に
西/南西の風 15kt
視程10km以上
高度3000ftの雲は散在している
24日の 06時(UTC)から 24日の 08時(UTC)まで徐々に
東/北東の風 15kt、最大25ktの突風を伴う
視程: 3000m
高度2000ftの曇り
大雨

TAF: SAWH 231100Z 2312/2412 25025G35KT 6000 -SN OVC020 TX04/2319Z TNM03/2410Z PROB30 TEMPO 2312/2316 1000 +SN OVC010 BECMG 2320/2324 25015KT 9999 NSW SCT030 BECMG 2406/2408 07015G25KT 3000 +RA OVC020

4,000以上の空港の気象観測と天気予報(METAR報とTAF報)

利用可能な観測所は地図上に黄色い丸と赤い丸で示す。

丸の上にカーソルを重ねると観測所名を参照できる。

次にクリックすると気象観測と天気予報を参照できる。

マップの切り替え:黒色「×」印の緑ボタンをクリックして拡大、「-」印の緑ボタンをクリックして縮小、緑色の三角印をクリックして隣りの地図に切り替え


METAR-TAF: